createdAt,value
2018-04-17T00:00:35.702Z,80.7
2018-04-17T00:01:35.700Z,80.76
2018-04-17T00:02:35.693Z,80.57
2018-04-17T00:03:35.436Z,80.95
2018-04-17T00:04:35.687Z,80.28
2018-04-17T00:05:35.686Z,80.76
2018-04-17T00:06:35.684Z,80.38
2018-04-17T00:07:35.687Z,80.66
2018-04-17T00:08:35.674Z,80.47
2018-04-17T00:09:35.425Z,80.95
2018-04-17T00:10:35.678Z,80.28
2018-04-17T00:11:36.468Z,80.66
2018-04-17T00:12:35.416Z,81.14
2018-04-17T00:13:35.416Z,81.43
2018-04-17T00:14:35.665Z,81.33
2018-04-17T00:15:35.426Z,81.62
2018-04-17T00:16:35.814Z,82.09
2018-04-17T00:17:35.653Z,81.71
2018-04-17T00:18:35.655Z,81.81
2018-04-17T00:19:35.651Z,81.81
2018-04-17T00:20:35.653Z,82.29
2018-04-17T00:21:35.397Z,82.19
2018-04-17T00:22:35.652Z,82.19
2018-04-17T00:23:35.640Z,82.29
2018-04-17T00:24:35.388Z,82.48
2018-04-17T00:25:35.636Z,81.62
2018-04-17T00:26:35.637Z,81.71
2018-04-17T00:27:35.385Z,82.09
2018-04-17T00:28:35.640Z,82.38
2018-04-17T00:29:35.385Z,82.24
2018-04-17T00:30:35.635Z,82.38
2018-04-17T00:31:35.623Z,82.43
2018-04-17T00:32:35.624Z,82
2018-04-17T00:33:35.625Z,81.96
2018-04-17T00:34:35.375Z,82.63
2018-04-17T00:35:35.614Z,82.34
2018-04-17T00:36:35.616Z,82.34
2018-04-17T00:37:35.664Z,81.86
2018-04-17T00:38:35.613Z,81.29
2018-04-17T00:39:35.608Z,81.2
2018-04-17T00:40:35.613Z,81.01
2018-04-17T00:41:35.601Z,80.72
2018-04-17T00:42:35.611Z,81.01
2018-04-17T00:43:35.595Z,80.62
2018-04-17T00:44:35.601Z,80.81
2018-04-17T00:45:35.590Z,80.43
2018-04-17T00:46:35.588Z,80.72
2018-04-17T00:47:35.589Z,81.01
2018-04-17T00:48:35.592Z,81.29
2018-04-17T00:49:35.597Z,81.67
2018-04-17T00:50:35.584Z,81.86
2018-04-17T00:51:35.583Z,81.38
2018-04-17T00:52:35.576Z,82.15
2018-04-17T00:53:35.579Z,82.15
2018-04-17T00:54:35.577Z,82.43
2018-04-17T00:55:35.588Z,82.15
2018-04-17T00:56:35.316Z,82.43
2018-04-17T00:57:35.561Z,82.24
2018-04-17T00:58:35.561Z,81.96
2018-04-17T00:59:35.565Z,82.06
2018-04-17T01:00:35.564Z,82.68
2018-04-17T01:01:35.557Z,83.01
2018-04-17T01:02:35.552Z,82.15
2018-04-17T01:03:35.552Z,82.34
2018-04-17T01:04:35.299Z,82.4
2018-04-17T01:05:35.541Z,82.3
2018-04-17T01:06:35.552Z,82.06
2018-04-17T01:07:35.546Z,82.34
2018-04-17T01:08:35.542Z,82.91
2018-04-17T01:09:35.534Z,82.49
2018-04-17T01:10:35.535Z,83.01
2018-04-17T01:11:35.541Z,82.87
2018-04-17T01:12:35.546Z,83.48
2018-04-17T01:13:35.540Z,83.25
2018-04-17T01:14:35.532Z,83.44
2018-04-17T01:15:35.528Z,83.64
2018-04-17T01:16:35.270Z,83.54
2018-04-17T01:17:35.515Z,84.11
2018-04-17T01:18:35.515Z,84.11
2018-04-17T01:19:35.509Z,83.73
2018-04-17T01:20:35.511Z,83.73
2018-04-17T01:21:35.504Z,84.2
2018-04-17T01:22:35.507Z,84.4
2018-04-17T01:23:35.498Z,84.88
2018-04-17T01:24:35.248Z,85.35
2018-04-17T01:25:35.501Z,85.25
2018-04-17T01:26:35.499Z,85.25
2018-04-17T01:27:35.488Z,85.35
2018-04-17T01:28:35.235Z,85.25
2018-04-17T01:29:35.488Z,85.35
2018-04-17T01:30:35.480Z,85.16
2018-04-17T01:31:35.480Z,85.54
2018-04-17T01:32:36.529Z,85.54
2018-04-17T01:33:35.479Z,85.16
2018-04-17T01:34:35.470Z,85.06
2018-04-17T01:35:35.466Z,85.35
2018-04-17T01:36:35.465Z,85.45
2018-04-17T01:37:35.458Z,85.35
2018-04-17T01:38:35.463Z,85.73
2018-04-17T01:39:35.208Z,85.93
2018-04-17T01:40:35.206Z,85.35
2018-04-17T01:41:35.208Z,85.35
2018-04-17T01:42:35.447Z,84.49
2018-04-17T01:43:35.450Z,85.25
2018-04-17T01:44:35.439Z,85.25
2018-04-17T01:45:35.189Z,85.35
2018-04-17T01:46:35.439Z,86.02
2018-04-17T01:47:38.938Z,85.54
2018-04-17T01:48:35.430Z,85.64
2018-04-17T01:49:35.178Z,86.26
2018-04-17T01:50:35.460Z,86.21
2018-04-17T01:51:35.421Z,86.21
2018-04-17T01:52:35.425Z,86.21
2018-04-17T01:53:35.420Z,86.11
2018-04-17T01:54:35.161Z,86.3
2018-04-17T01:55:35.413Z,86.21
2018-04-17T01:56:35.407Z,86.49
2018-04-17T01:57:35.172Z,86.16
2018-04-17T01:58:35.419Z,86.26
2018-04-17T01:59:35.398Z,86.74
2018-04-17T02:00:35.165Z,87.26
2018-04-17T02:01:35.405Z,87.31
2018-04-17T02:02:35.143Z,87.12
2018-04-17T02:03:35.389Z,87.21
2018-04-17T02:04:35.385Z,86.83
2018-04-17T02:05:35.384Z,87.4
2018-04-17T02:06:35.380Z,86.93
2018-04-17T02:07:35.383Z,87.12
2018-04-17T02:08:35.375Z,87.4
2018-04-17T02:09:35.367Z,87.4
2018-04-17T02:10:35.381Z,87.4
2018-04-17T02:11:35.367Z,87.88
2018-04-17T02:12:35.364Z,87.5
2018-04-17T02:13:35.111Z,87.4
2018-04-17T02:14:35.115Z,87.4
2018-04-17T02:15:35.355Z,87.02
2018-04-17T02:16:35.352Z,87.4
2018-04-17T02:17:35.357Z,88.36
2018-04-17T02:18:35.343Z,88.45
2018-04-17T02:19:35.343Z,89.03
2018-04-17T02:20:35.336Z,88.93
2018-04-17T02:21:35.340Z,89.22
2018-04-17T02:22:35.336Z,88.84
2018-04-17T02:23:35.329Z,88.93
2018-04-17T02:24:35.324Z,89.12
2018-04-17T02:25:35.327Z,88.84
2018-04-17T02:26:35.084Z,89.12
2018-04-17T02:27:35.327Z,89.79
2018-04-17T02:28:35.072Z,89.79
2018-04-17T02:29:35.068Z,89.69
2018-04-17T02:30:35.318Z,89.69
2018-04-17T02:31:35.054Z,89.79
2018-04-17T02:32:35.052Z,89.98
2018-04-17T02:33:35.309Z,89.89
2018-04-17T02:34:35.294Z,89.79
2018-04-17T02:35:35.040Z,89.69
2018-04-17T02:36:35.298Z,89.98
2018-04-17T02:37:35.037Z,89.89
2018-04-17T02:38:35.291Z,89.69
2018-04-17T02:39:35.280Z,89.89
2018-04-17T02:40:35.282Z,90.45
2018-04-17T02:41:35.281Z,90.64
2018-04-17T02:42:35.021Z,90.74
2018-04-17T02:43:35.029Z,91.22
2018-04-17T02:44:35.282Z,91.6
2018-04-17T02:45:35.261Z,91.31
2018-04-17T02:46:35.259Z,91.6
2018-04-17T02:47:35.373Z,92.08
2018-04-17T02:48:35.261Z,92.65
2018-04-17T02:49:35.258Z,92.46
2018-04-17T02:50:35.245Z,92.27
2018-04-17T02:51:35.246Z,92.27
2018-04-17T02:52:35.242Z,92.46
2018-04-17T02:53:34.987Z,92.84
2018-04-17T02:54:35.242Z,93.12
2018-04-17T02:55:35.227Z,93.32
2018-04-17T02:56:35.222Z,92.84
2018-04-17T02:57:35.220Z,92.74
2018-04-17T02:58:35.217Z,92.46
2018-04-17T02:59:34.969Z,93.22
2018-04-17T03:00:35.212Z,92.93
2018-04-17T03:01:34.958Z,93.12
2018-04-17T03:02:35.201Z,92.74
2018-04-17T03:03:35.203Z,92.84
2018-04-17T03:04:35.198Z,93.12
2018-04-17T03:05:35.198Z,93.51
2018-04-17T03:06:35.191Z,93.84
2018-04-17T03:07:34.939Z,94.56
2018-04-17T03:08:35.189Z,94.27
2018-04-17T03:09:34.933Z,93.88
2018-04-17T03:10:34.934Z,93.7
2018-04-17T03:11:35.173Z,94.17
2018-04-17T03:12:35.168Z,94.6
2018-04-17T03:13:34.920Z,94.13
2018-04-17T03:14:34.916Z,95.08
2018-04-17T03:15:35.161Z,94.79
2018-04-17T03:16:34.907Z,94.51
2018-04-17T03:17:35.155Z,95.08
2018-04-17T03:18:37.798Z,95.46
2018-04-17T03:19:35.151Z,95.65
2018-04-17T03:20:35.149Z,95.65
2018-04-17T03:21:34.888Z,96.36
2018-04-17T03:22:34.885Z,96.8
2018-04-17T03:23:35.138Z,97.36
2018-04-17T03:24:35.136Z,97.46
2018-04-17T03:25:35.135Z,97.22
2018-04-17T03:26:35.120Z,96.75
2018-04-17T03:27:35.116Z,96.56
2018-04-17T03:28:35.143Z,96.94
2018-04-17T03:29:35.122Z,96.75
2018-04-17T03:37:44.581Z,97.13
2018-04-17T03:38:44.576Z,97.22
2018-04-17T03:39:44.323Z,97.13
2018-04-17T03:40:44.571Z,96.94
2018-04-17T03:41:44.566Z,97.7
2018-04-17T03:42:44.567Z,97.51
2018-04-17T03:43:44.309Z,97.61
2018-04-17T03:44:44.557Z,98.36
2018-04-17T03:45:44.301Z,97.89
2018-04-17T03:46:44.549Z,98.27
2018-04-17T03:47:44.543Z,98.08
2018-04-17T03:48:44.543Z,98.56
2018-04-17T03:49:44.284Z,98.27
2018-04-17T03:50:44.325Z,98.08
2018-04-17T03:51:44.532Z,98.56
2018-04-17T03:52:44.522Z,98.46
2018-04-17T03:53:44.522Z,98.46
2018-04-17T03:54:44.529Z,98.56
2018-04-17T03:55:44.275Z,98.27
2018-04-17T03:56:44.509Z,98.46
2018-04-17T03:57:44.511Z,98.36
2018-04-17T03:58:44.507Z,98.56
2018-04-17T03:59:44.501Z,98.08
2018-04-17T04:00:44.514Z,98.08
2018-04-17T04:01:44.491Z,97.89
2018-04-17T04:02:44.540Z,98.18
2018-04-17T04:03:44.494Z,98.08
2018-04-17T04:04:44.490Z,98.56
2018-04-17T04:05:44.482Z,98.56
2018-04-17T04:06:44.486Z,98.36
2018-04-17T04:07:47.380Z,98.36
2018-04-17T04:08:44.468Z,98.75
2018-04-17T04:09:44.468Z,98.85
2018-04-17T04:10:44.457Z,98.85
2018-04-17T04:11:44.464Z,98.51
2018-04-17T04:12:44.452Z,99.08
2018-04-17T04:13:44.451Z,98.7
2018-04-17T04:14:44.445Z,99.08
2018-04-17T04:15:44.444Z,99.18
2018-04-17T04:16:44.465Z,99.18
2018-04-17T04:17:44.441Z,99.18
2018-04-17T04:18:44.431Z,99.99
2018-04-17T04:19:44.428Z,99.99
2018-04-17T04:20:44.435Z,99.99
2018-04-17T04:21:44.423Z,99.99
2018-04-17T04:22:44.414Z,99.99
2018-04-17T04:23:44.416Z,99.99
2018-04-17T04:24:44.161Z,99.99
2018-04-17T04:25:44.403Z,99.99
2018-04-17T04:26:44.402Z,99.99
2018-04-17T04:27:44.150Z,99.99
2018-04-17T04:28:44.392Z,99.99
2018-04-17T04:29:44.386Z,99.99
2018-04-17T04:30:44.149Z,99.99
2018-04-17T04:31:44.384Z,99.99
2018-04-17T04:32:44.128Z,99.99
2018-04-17T04:33:44.407Z,99.99
2018-04-17T04:34:44.372Z,99.99
2018-04-17T04:35:44.367Z,99.99
2018-04-17T04:36:44.364Z,99.99
2018-04-17T04:37:44.356Z,99.99
2018-04-17T04:38:44.355Z,99.99
2018-04-17T04:39:44.103Z,99.99
2018-04-17T04:40:44.098Z,99.99
2018-04-17T04:41:44.093Z,99.99
2018-04-17T04:42:44.340Z,99.99
2018-04-17T04:43:44.087Z,99.99
2018-04-17T04:44:44.329Z,99.99
2018-04-17T04:45:44.332Z,99.99
2018-04-17T04:46:44.076Z,99.99
2018-04-17T04:47:44.322Z,99.99
2018-04-17T04:48:44.068Z,99.99
2018-04-17T04:49:44.074Z,99.99
2018-04-17T04:50:44.310Z,99.99
2018-04-17T04:51:44.055Z,99.99
2018-04-17T04:52:44.309Z,99.99
2018-04-17T04:53:44.301Z,99.99
2018-04-17T04:54:44.302Z,99.99
2018-04-17T04:55:44.305Z,99.99
2018-04-17T04:56:44.310Z,99.99
2018-04-17T04:57:44.065Z,99.99
2018-04-17T04:58:44.281Z,99.99
2018-04-17T04:59:44.275Z,99.99
2018-04-17T05:00:44.028Z,99.99
2018-04-17T05:01:44.269Z,99.99
2018-04-17T05:02:44.264Z,99.99
2018-04-17T05:03:44.263Z,98.42
2018-04-17T05:04:44.301Z,96.94
2018-04-17T05:05:44.255Z,95.7
2018-04-17T05:06:44.263Z,93.88
2018-04-17T05:07:44.256Z,92.02
2018-04-17T05:08:45.553Z,90.69
2018-04-17T05:09:44.254Z,89.06
2018-04-17T05:10:44.249Z,88.06
2018-04-17T05:11:44.254Z,87.01
2018-04-17T05:12:44.254Z,87.2
2018-04-17T05:13:44.252Z,86.53
2018-04-17T05:14:44.255Z,86.72
2018-04-17T05:15:44.254Z,86.53
2018-04-17T05:16:44.253Z,86.43
2018-04-17T05:17:44.234Z,87.01
2018-04-17T05:18:44.236Z,87.29
2018-04-17T05:19:44.237Z,87.96
2018-04-17T05:20:44.259Z,85.67
2018-04-17T05:21:44.261Z,85.62
2018-04-17T05:22:44.238Z,84.19
2018-04-17T05:23:44.235Z,82.98
2018-04-17T05:24:44.236Z,82.03
2018-04-17T05:25:44.260Z,82.03
2018-04-17T05:26:43.978Z,81.55
2018-04-17T05:27:44.232Z,81.55
2018-04-17T05:28:44.238Z,81.84
2018-04-17T05:29:43.978Z,81.65
2018-04-17T05:30:44.225Z,82.75
2018-04-17T05:31:44.241Z,83.42
2018-04-17T05:32:44.223Z,83.51
2018-04-17T05:33:44.246Z,83.51
2018-04-17T05:34:44.231Z,82.79
2018-04-17T05:35:44.224Z,82.03
2018-04-17T05:36:43.970Z,80.11
2018-04-17T05:37:43.979Z,79.87
2018-04-17T05:38:45.228Z,79.39
2018-04-17T05:39:44.224Z,77.67
2018-04-17T05:40:44.275Z,77
2018-04-17T05:41:43.978Z,75.89
2018-04-17T05:42:43.974Z,75.22
2018-04-17T05:43:44.222Z,73.15
2018-04-17T05:44:44.226Z,72.03
2018-04-17T05:45:43.983Z,71.17
2018-04-17T05:46:44.243Z,69.29
2018-04-17T05:47:44.224Z,68.43
2018-04-17T05:48:44.230Z,67.6
2018-04-17T05:49:44.227Z,66.83
2018-04-17T05:50:43.985Z,66.39
2018-04-17T05:51:44.234Z,65.52
2018-04-17T05:52:44.249Z,64.95
2018-04-17T05:53:43.986Z,65.52
2018-04-17T05:54:44.249Z,66.45
2018-04-17T05:55:44.265Z,67.85
2018-04-17T05:56:44.249Z,70.12
2018-04-17T05:57:43.998Z,71.27
2018-04-17T05:58:44.249Z,73.34
2018-04-17T05:59:44.296Z,74.26
2018-04-17T06:00:44.254Z,76.08
2018-04-17T06:01:44.253Z,76.33
2018-04-17T06:02:44.004Z,77.19
2018-04-17T06:03:44.007Z,78.34
2018-04-17T06:04:44.255Z,79.2
2018-04-17T06:05:44.254Z,79.96
2018-04-17T06:06:44.255Z,80.4
2018-04-17T06:07:44.256Z,81.36
2018-04-17T06:08:44.259Z,82.03
2018-04-17T06:09:44.258Z,81.93
2018-04-17T06:10:44.256Z,82.6
2018-04-17T06:11:44.007Z,82.6
2018-04-17T06:12:44.290Z,82.98
2018-04-17T06:22:08.847Z,76.89
2018-04-17T06:23:09.098Z,75.26
2018-04-17T06:24:09.089Z,74.62
2018-04-17T06:25:09.475Z,73.86
2018-04-17T06:26:09.214Z,71.11
2018-04-17T06:27:09.091Z,69.74
2018-04-17T06:28:09.085Z,66.61
2018-04-17T06:29:09.088Z,64.43
2018-04-17T06:30:09.133Z,62.55
2018-04-17T06:31:08.836Z,61.04
2018-04-17T06:32:09.104Z,60.46
2018-04-17T06:33:09.088Z,60.21
2018-04-17T06:34:09.090Z,60.11
2018-04-17T06:35:09.577Z,59.53
2018-04-17T06:36:09.099Z,59.24
2018-04-17T06:37:09.100Z,58.95
2018-04-17T06:38:09.097Z,57.92
2018-04-17T06:39:09.099Z,57.06
2018-04-17T06:40:09.508Z,56.99
2018-04-17T06:41:09.105Z,55.83
2018-04-17T06:42:13.390Z,56.12
2018-04-17T06:43:09.142Z,55.38
2018-04-17T06:44:09.147Z,55.38
2018-04-17T06:45:09.489Z,54.22
2018-04-17T06:46:09.135Z,54.52
2018-04-17T06:47:09.135Z,54.32
2018-04-17T06:48:08.890Z,53.74
2018-04-17T06:49:09.154Z,53.67
2018-04-17T06:50:09.291Z,53.19
2018-04-17T06:51:09.154Z,54.22
2018-04-17T06:52:09.165Z,54.13
2018-04-17T06:53:09.216Z,53.19
2018-04-17T06:54:09.176Z,53.48
2018-04-17T06:55:09.598Z,52.81
2018-04-17T06:56:09.182Z,52.42
2018-04-17T06:57:09.186Z,52.91
2018-04-17T06:58:08.981Z,52.33
2018-04-17T06:59:09.191Z,52.61
2018-04-17T07:00:09.598Z,52.52
2018-04-17T07:01:09.222Z,52.13
2018-04-17T07:02:09.215Z,52.23
2018-04-17T07:03:09.221Z,52.13
2018-04-17T07:04:09.220Z,51.68
2018-04-17T07:05:09.640Z,52.25
2018-04-17T07:06:09.238Z,51.39
2018-04-17T07:07:08.989Z,51.1
2018-04-17T07:08:09.249Z,50.62
2018-04-17T07:09:09.258Z,50.74
2018-04-17T07:10:09.696Z,49.77
2018-04-17T07:11:09.260Z,48.64
2018-04-17T07:12:09.023Z,48.64
2018-04-17T07:13:09.274Z,48.64
2018-04-17T07:14:09.033Z,48.64
2018-04-17T07:15:09.487Z,47.99
2018-04-17T07:16:09.295Z,46.64
2018-04-17T07:17:09.312Z,46.66
2018-04-17T07:18:09.316Z,45.89
2018-04-17T07:19:09.313Z,45.69
2018-04-17T07:20:09.760Z,44.82
2018-04-17T07:21:09.329Z,45.04
2018-04-17T07:22:09.334Z,45.5
2018-04-17T07:23:09.341Z,47.02
2018-04-17T07:24:09.348Z,48.93
2018-04-17T07:25:09.786Z,50.42
2018-04-17T07:26:09.361Z,51.94
2018-04-17T07:27:09.365Z,53.36
2018-04-17T07:28:09.371Z,54.36
2018-04-17T07:29:09.376Z,56.1
2018-04-17T07:30:09.825Z,55.88
2018-04-17T07:31:09.384Z,57.29
2018-04-17T07:32:09.144Z,58.13
2018-04-17T07:33:09.399Z,57.93
2018-04-17T07:34:09.397Z,57.26
2018-04-17T07:35:09.812Z,55.73
2018-04-17T07:36:09.406Z,55.08
2018-04-17T07:37:09.415Z,52.63
2018-04-17T07:38:09.427Z,50.25
2018-04-17T07:39:09.420Z,48.38
2018-04-17T07:40:09.921Z,46.86
2018-04-17T07:41:09.182Z,46.78
2018-04-17T07:42:09.185Z,46.69
2018-04-17T07:43:09.895Z,47.63
2018-04-17T07:44:09.443Z,48.18
2018-04-17T07:45:09.867Z,49.6
2018-04-17T07:46:09.454Z,50.27
2018-04-17T07:47:09.459Z,49.79
2018-04-17T07:48:09.213Z,48.57
2018-04-17T07:49:09.466Z,46.18
2018-04-17T07:50:09.537Z,45.24
2018-04-17T07:51:09.476Z,44.46
2018-04-17T07:52:09.477Z,44.37
2018-04-17T07:53:09.487Z,45.43
2018-04-17T07:54:09.496Z,44.27
2018-04-17T07:55:09.933Z,44.95
2018-04-17T07:56:09.252Z,44.66
2018-04-17T07:57:09.258Z,42.94
2018-04-17T07:58:09.518Z,42.56
2018-04-17T07:59:09.522Z,42.19
2018-04-17T08:00:09.961Z,41.25
2018-04-17T08:01:09.555Z,40.67
2018-04-17T08:02:09.537Z,40.2
2018-04-17T08:03:09.539Z,40.11
2018-04-17T08:04:09.551Z,40.88
2018-04-17T08:05:09.791Z,40.57
2018-04-17T08:06:09.612Z,40.47
2018-04-17T08:07:09.571Z,40.67
2018-04-17T08:08:09.578Z,41.63
2018-04-17T08:09:09.580Z,41.25
2018-04-17T08:10:09.783Z,39.9
2018-04-17T08:11:09.591Z,38.78
2018-04-17T08:12:09.596Z,38.6
2018-04-17T08:13:13.867Z,40.17
2018-04-17T08:14:09.632Z,38.33
2018-04-17T08:15:10.070Z,37.46
2018-04-17T08:16:09.391Z,38.33
2018-04-17T08:17:09.393Z,39.57
2018-04-17T08:18:09.642Z,39.67
2018-04-17T08:19:09.642Z,38.79
2018-04-17T08:20:10.158Z,37.92
2018-04-17T08:21:09.658Z,38.91
2018-04-17T08:22:09.413Z,39.76
2018-04-17T08:23:09.687Z,41.56
2018-04-17T08:24:09.678Z,41.63
2018-04-17T08:25:10.211Z,41.25
2018-04-17T08:26:09.442Z,41.36
2018-04-17T08:27:09.697Z,40.78
2018-04-17T08:28:09.705Z,39.55
2018-04-17T08:29:09.459Z,38.7
2018-04-17T08:30:10.322Z,38.23
2018-04-17T08:31:09.724Z,38.71
2018-04-17T08:32:09.730Z,39.01
2018-04-17T08:33:09.742Z,39.86
2018-04-17T08:34:09.497Z,40.81
2018-04-17T08:35:10.204Z,40.81
2018-04-17T08:36:09.767Z,40.81
2018-04-17T08:37:09.770Z,40.88
2018-04-17T08:38:09.791Z,41.46
2018-04-17T08:39:09.787Z,42.12
2018-04-17T08:40:10.203Z,42.6
2018-04-17T08:41:09.814Z,44.12
2018-04-17T08:42:09.550Z,45.17
2018-04-17T08:43:09.837Z,46.11
2018-04-17T08:44:09.832Z,48.01
2018-04-17T08:45:10.192Z,49.15
2018-04-17T08:46:09.841Z,50.27
2018-04-17T08:47:09.850Z,51.98
2018-04-17T08:48:09.844Z,52.34
2018-04-17T08:49:09.854Z,52.44
2018-04-17T08:50:10.374Z,52.25
2018-04-17T08:51:09.866Z,53.88
2018-04-17T08:52:09.869Z,53.21
2018-04-17T08:53:09.620Z,53.31
2018-04-17T08:54:09.886Z,54.72
2018-04-17T08:55:10.422Z,53.98
2018-04-17T08:56:09.903Z,53.66
2018-04-17T08:57:09.907Z,53.31
2018-04-17T08:58:09.890Z,53.02
2018-04-17T08:59:09.901Z,52.34
2018-04-17T09:00:10.206Z,51.86
2018-04-17T09:01:09.908Z,52.06
2018-04-17T09:02:09.907Z,51.38
2018-04-17T09:03:09.911Z,52.08
2018-04-17T09:04:09.669Z,51.79
2018-04-17T09:05:10.446Z,51.31
2018-04-17T09:06:09.925Z,51.21
2018-04-17T09:07:09.929Z,50.54
2018-04-17T09:08:09.940Z,50.73
2018-04-17T09:09:09.684Z,51.02
2018-04-17T09:10:10.385Z,51.31
2018-04-17T09:11:09.692Z,51.21
2018-04-17T09:12:09.947Z,50.25
2018-04-17T09:13:09.961Z,50.37
2018-04-17T09:14:13.360Z,50.18
2018-04-17T09:15:10.510Z,49.51
2018-04-17T09:16:09.968Z,49.12
2018-04-17T09:17:10.088Z,49.12
2018-04-17T09:18:09.981Z,50.47
2018-04-17T09:19:09.976Z,49.79
2018-04-17T09:20:10.619Z,47.89
2018-04-17T09:21:09.994Z,47.7
2018-04-17T09:22:09.997Z,46.33
2018-04-17T09:23:09.990Z,46.64
2018-04-17T09:24:09.998Z,48.06
2018-04-17T09:25:10.591Z,48.74
2018-04-17T09:26:09.998Z,49.41
2018-04-17T09:27:10.000Z,49.99
2018-04-17T09:28:10.012Z,49.41
2018-04-17T09:29:09.760Z,48.95
2018-04-17T09:30:10.682Z,49.15
2018-04-17T09:31:10.014Z,48.95
2018-04-17T09:32:10.014Z,51.34
2018-04-17T09:33:10.135Z,51.34
2018-04-17T09:34:10.031Z,51.14
2018-04-17T09:35:10.275Z,51.92
2018-04-17T09:36:10.088Z,53.05
2018-04-17T09:37:10.036Z,53.33
2018-04-17T09:38:10.035Z,51.89
2018-04-17T09:39:10.044Z,51.89
2018-04-17T09:40:10.527Z,51.7
2018-04-17T09:41:10.050Z,51.6
2018-04-17T09:42:10.060Z,51.21
2018-04-17T09:43:10.057Z,51.21
2018-04-17T09:44:10.057Z,51.6
2018-04-17T09:45:10.569Z,51.79
2018-04-17T09:46:10.063Z,51.02
2018-04-17T09:47:10.067Z,51.34
2018-04-17T09:48:10.070Z,51.43
2018-04-17T09:49:10.075Z,50.47
2018-04-17T09:50:10.435Z,49.41
2018-04-17T09:51:10.086Z,49.6
2018-04-17T09:52:10.085Z,49.91
2018-04-17T09:53:10.086Z,50.3
2018-04-17T09:54:10.099Z,49.82
2018-04-17T09:55:10.941Z,50.23
2018-04-17T09:56:10.094Z,50.4
2018-04-17T09:57:09.874Z,50.01
2018-04-17T09:58:10.101Z,49.55
2018-04-17T09:59:09.870Z,49.75
2018-04-17T10:00:10.932Z,49.75
2018-04-17T10:01:10.122Z,48.97
2018-04-17T10:02:10.114Z,48.3
2018-04-17T10:03:10.122Z,48.3
2018-04-17T10:04:10.126Z,48.3
2018-04-17T10:05:10.199Z,48.49
2018-04-17T10:06:10.152Z,49.46
2018-04-17T10:07:10.130Z,49.75
2018-04-17T10:08:10.146Z,50.23
2018-04-17T10:09:10.312Z,49.27
2018-04-17T10:10:10.679Z,48.4
2018-04-17T10:11:10.150Z,48.52
2018-04-17T10:12:09.915Z,49
2018-04-17T10:13:09.919Z,49.1
2018-04-17T10:14:10.166Z,49.19
2018-04-17T10:15:11.061Z,49.48
2018-04-17T10:16:10.172Z,49.39
2018-04-17T10:17:10.206Z,48.9
2018-04-17T10:18:10.174Z,48.16
2018-04-17T10:19:09.945Z,47.87
2018-04-17T10:20:10.628Z,47.48
2018-04-17T10:21:10.201Z,46.33
2018-04-17T10:22:10.195Z,46.61
2018-04-17T10:52:58.203Z,48.69
2018-04-17T10:53:54.722Z,47.92
2018-04-17T10:54:54.716Z,46.56
2018-04-17T10:55:54.987Z,46.18
2018-04-17T10:56:54.985Z,45.89
2018-04-17T10:57:54.972Z,45.7
2018-04-17T10:58:54.985Z,45.79
2018-04-17T10:59:54.718Z,46.45
2018-04-17T11:00:54.725Z,45.31
2018-04-17T11:01:54.979Z,45.31
2018-04-17T11:02:54.727Z,45.29
2018-04-17T11:03:54.726Z,43.55
2018-04-17T11:04:55.075Z,42.97
2018-04-17T11:05:54.741Z,43.46
2018-04-17T11:06:54.989Z,45.39
2018-04-17T11:07:54.735Z,45.03
2018-04-17T11:08:54.997Z,42.71
2018-04-17T11:09:55.003Z,42.23
2018-04-17T11:10:55.019Z,41.36
2018-04-17T11:11:55.002Z,41.57
2018-04-17T11:12:55.020Z,41.67
2018-04-17T11:13:54.757Z,40.53
2018-04-17T11:14:55.015Z,40.92
2018-04-17T11:15:55.020Z,41.3
2018-04-17T11:16:55.025Z,42.08
2018-04-17T11:17:55.028Z,44.49
2018-04-17T11:18:55.026Z,41.61
2018-04-17T11:19:55.037Z,40.92
2018-04-17T11:20:55.028Z,40.72
2018-04-17T11:21:54.782Z,40.72
2018-04-17T11:22:55.038Z,40.63
2018-04-17T11:23:55.060Z,42.25
2018-04-17T11:24:54.809Z,41.48
2018-04-17T11:25:54.797Z,40.82
2018-04-17T11:26:54.806Z,39.86
2018-04-17T11:27:55.065Z,39.86
2018-04-17T11:28:55.061Z,41.02
2018-04-17T11:29:55.061Z,39.57
2018-04-17T11:30:55.081Z,40.05
2018-04-17T11:31:55.070Z,40.63
2018-04-17T11:32:55.075Z,40.15
2018-04-17T11:33:55.075Z,39.86
2018-04-17T11:34:55.086Z,43.62
2018-04-17T11:35:55.083Z,40.53
2018-04-17T11:36:55.084Z,41.6
2018-04-17T11:37:55.126Z,40.05
2018-04-17T11:38:54.868Z,38.99
2018-04-17T11:39:55.108Z,38.29
2018-04-17T11:40:55.103Z,38.58
2018-04-17T11:41:55.105Z,39.36
2018-04-17T11:42:55.241Z,38.68
2018-04-17T11:43:54.866Z,39.45
2018-04-17T11:44:55.113Z,38.39
2018-04-17T11:45:55.119Z,38.2
2018-04-17T11:46:55.130Z,38.29
2018-04-17T11:47:55.129Z,38.29
2018-04-17T11:48:55.128Z,38.29
2018-04-17T11:49:55.138Z,38.31
2018-04-17T11:50:55.152Z,37.73
2018-04-17T11:51:54.923Z,39.66
2018-04-17T11:52:55.181Z,40.63
2018-04-17T11:53:54.928Z,38.79
2018-04-17T11:54:54.931Z,38.51
2018-04-17T11:55:54.930Z,38.79
2018-04-17T11:56:54.937Z,37.45
2018-04-17T11:57:54.929Z,40.72
2018-04-17T11:58:55.172Z,38.79
2018-04-17T11:59:55.170Z,37.35
2018-04-17T12:00:54.943Z,39.76
2018-04-17T12:01:55.180Z,40.92
2018-04-17T12:02:55.180Z,39.37
2018-04-17T12:03:55.183Z,38.99
2018-04-17T12:04:55.190Z,41.2
2018-04-17T12:05:54.947Z,38.89
2018-04-17T12:06:55.197Z,39.95
2018-04-17T12:07:55.200Z,37.06
2018-04-17T12:08:55.359Z,37.25
2018-04-17T12:09:55.209Z,38.21
2018-04-17T12:10:55.212Z,37.25
2018-04-17T12:11:54.982Z,38.89
2018-04-17T12:12:55.230Z,39.47
2018-04-17T12:13:55.308Z,37.25
2018-04-17T12:14:54.991Z,34.38
2018-04-17T12:15:55.233Z,33.6
2018-04-17T12:16:55.256Z,35.82
2018-04-17T12:17:55.006Z,35.92
2018-04-17T12:18:56.042Z,37.17
2018-04-17T12:19:55.008Z,37.93
2018-04-17T12:20:55.256Z,37.95
2018-04-17T12:21:55.259Z,36.11
2018-04-17T12:22:55.011Z,34.66
2018-04-17T12:23:56.610Z,35.44
2018-04-17T12:24:55.263Z,35.34
2018-04-17T12:25:55.370Z,32.94
2018-04-17T12:26:55.276Z,35.74
2018-04-17T12:27:55.285Z,35.92
2018-04-17T12:28:55.283Z,35.44
2018-04-17T12:29:55.287Z,32.06
2018-04-17T12:30:55.289Z,30.7
2018-04-17T12:31:55.298Z,31.67
2018-04-17T12:32:55.295Z,29.45
2018-04-17T12:33:55.301Z,29.74
2018-04-17T12:34:55.303Z,31.48
2018-04-17T12:35:55.306Z,32.34
2018-04-17T12:36:55.089Z,32.54
2018-04-17T12:37:55.323Z,33.89
2018-04-17T12:38:55.076Z,30.33
2018-04-17T12:39:55.323Z,29.93
2018-04-17T12:40:55.329Z,30.7
2018-04-17T12:41:55.332Z,30.7
2018-04-17T12:42:55.336Z,30.03
2018-04-17T12:43:55.341Z,30.12
2018-04-17T12:44:55.396Z,30.61
2018-04-17T12:45:55.102Z,30.43
2018-04-17T12:46:55.369Z,30.14
2018-04-17T12:47:55.129Z,31.78
2018-04-17T12:48:55.361Z,30.63
2018-04-17T12:49:55.372Z,31.51
2018-04-17T12:50:55.372Z,32.76
2018-04-17T12:51:55.441Z,31.31
2018-04-17T12:52:55.130Z,31.99
2018-04-17T12:53:55.139Z,32.09
2018-04-17T12:54:55.394Z,34.89
2018-04-17T12:55:55.141Z,33.62
2018-04-17T12:56:55.400Z,34.1
2018-04-17T12:57:55.398Z,34.1
2018-04-17T12:58:55.160Z,33.33
2018-04-17T12:59:55.155Z,33.14
2018-04-17T13:00:55.408Z,33.33
2018-04-17T13:01:55.415Z,33.04
2018-04-17T13:02:55.436Z,33.52
2018-04-17T13:03:55.425Z,33.33
2018-04-17T13:04:55.426Z,32.18
2018-04-17T13:05:55.439Z,31.51
2018-04-17T13:06:55.190Z,31.89
2018-04-17T13:07:55.439Z,31.8
2018-04-17T13:08:55.467Z,31.89
2018-04-17T13:09:55.465Z,32.18
2018-04-17T13:10:55.201Z,32.38
2018-04-17T13:11:55.467Z,31.81
2018-04-17T13:12:55.466Z,31.04
2018-04-17T13:13:55.477Z,31.04
2018-04-17T13:14:55.471Z,32.49
2018-04-17T13:15:55.488Z,31.91
2018-04-17T13:16:55.491Z,30.57
2018-04-17T13:17:55.237Z,30.94
2018-04-17T13:18:55.488Z,30.94
2018-04-17T13:19:55.496Z,31.81
2018-04-17T13:20:55.498Z,32.1
2018-04-17T13:21:55.254Z,34.04
2018-04-17T13:22:55.262Z,33.26
2018-04-17T13:23:55.521Z,32.39
2018-04-17T13:24:55.522Z,34.42
2018-04-17T13:25:55.553Z,34.42
2018-04-17T13:26:55.529Z,35.39
2018-04-17T13:27:55.547Z,34.13
2018-04-17T13:28:55.311Z,35.1
2018-04-17T13:29:55.552Z,35.58
2018-04-17T13:30:55.300Z,37.04
2018-04-17T13:31:55.551Z,33.26
2018-04-17T13:32:55.313Z,32.29
2018-04-17T13:33:55.561Z,33.36
2018-04-17T13:34:55.563Z,34.7
2018-04-17T13:35:55.571Z,33.73
2018-04-17T13:36:55.573Z,34.41
2018-04-17T13:37:55.355Z,34.02
2018-04-17T13:38:55.591Z,32.86
2018-04-17T13:39:55.363Z,33.17
2018-04-17T13:40:55.350Z,34.33